Time;durP1;ratioP1;P1;durP2;ratioP2;P2;SDS_P1;SDS_P2;PMS_P1;PMS_P2;Temp;Humidity;BMP_temperature;BMP_pressure;BME280_temperature;BME280_humidity;BME280_pressure;Samples;Min_cycle;Max_cycle;Signal;HPM_P1;HPM_P2
2022/06/13 00:01:06;;;;;;;;;;;;;;;17.82;100.00;98197.52;1612871;88;24478;-84
2022/06/13 00:03:32;;;;;;;;;;;;;;;17.77;100.00;98189.70;1615321;87;20241;-87
2022/06/13 00:05:58;;;;;;;;;;;;;;;17.69;100.00;98187.84;1615841;88;24830;-84
2022/06/13 00:08:25;;;;;;;;;;;;;;;17.69;100.00;98179.90;1622693;88;20244;-86
2022/06/13 00:10:51;;;;;;;;;;;;;;;17.67;100.00;98175.27;1615203;88;26129;-85
2022/06/13 00:13:17;;;;;;;;;;;;;;;17.70;100.00;98176.27;1624187;87;20318;-84
2022/06/13 00:15:43;;;;;;;;;;;;;;;17.70;100.00;98170.14;1637319;87;20801;-88
2022/06/13 00:18:09;;;;;;;;;;;;;;;17.76;100.00;98172.99;1621448;87;20772;-88
2022/06/13 00:20:35;;;;;;;;;;;;;;;17.83;100.00;98180.64;1624570;87;20525;-87
2022/06/13 00:23:01;;;;;;;;;;;;;;;17.86;100.00;98180.80;1626240;87;20984;-88
2022/06/13 00:25:27;;;;;;;;;;;;;;;17.84;100.00;98178.30;1606557;87;20378;-88
2022/06/13 00:27:53;;;;;;;;;;;;;;;17.86;100.00;98181.63;1605255;88;20180;-88
2022/06/13 00:30:20;;;;;;;;;;;;;;;17.86;100.00;98175.02;1611664;88;24962;-84
2022/06/13 00:32:47;;;;;;;;;;;;;;;17.83;100.00;98176.67;1599004;89;22076;-85
2022/06/13 00:35:13;;;;;;;;;;;;;;;17.73;100.00;98174.61;1609604;87;26071;-84
2022/06/13 00:37:40;;;;;;;;;;;;;;;17.70;100.00;98174.95;1600455;88;24390;-84
2022/06/13 00:40:08;;;;;;;;;;;;;;;17.69;100.00;98168.48;1645987;86;20332;-84
2022/06/13 00:42:34;;;;;;;;;;;;;;;17.72;100.00;98165.04;1650637;86;25050;-84
2022/06/13 00:45:04;;;;;;;;;;;;;;;17.69;100.00;98164.51;1646020;86;21944;-88
2022/06/13 00:47:30;;;;;;;;;;;;;;;17.60;100.00;98161.00;1606148;88;26021;-88
2022/06/13 00:49:58;;;;;;;;;;;;;;;17.53;100.00;98159.94;1592915;89;24487;-88
2022/06/13 00:52:26;;;;;;;;;;;;;;;17.49;100.00;98151.98;1598427;89;20312;-84
2022/06/13 00:54:53;;;;;;;;;;;;;;;17.49;100.00;98154.14;1596457;88;24733;-84
2022/06/13 00:57:20;;;;;;;;;;;;;;;17.49;100.00;98154.63;1600622;88;22593;-88
2022/06/13 00:59:48;;;;;;;;;;;;;;;17.49;100.00;98154.14;1604215;89;26087;-88
2022/06/13 01:02:14;;;;;;;;;;;;;;;17.43;100.00;98160.05;1605898;88;24553;-85
2022/06/13 01:04:40;;;;;;;;;;;;;;;17.34;100.00;98158.36;1594762;89;20526;-85
2022/06/13 01:07:08;;;;;;;;;;;;;;;17.22;100.00;98150.34;1595689;89;24768;-88
2022/06/13 01:12:20;;;;;;;;;;;;;;;17.07;100.00;98140.00;1607203;88;26012;-84
2022/06/13 01:14:53;;;;;;;;;;;;;;;17.01;100.00;98138.80;1607684;88;24511;-84
2022/06/13 01:17:38;;;;;;;;;;;;;;;17.10;100.00;98129.93;1595014;89;20248;-84
2022/06/13 01:20:08;;;;;;;;;;;;;;;17.16;100.00;98127.16;1598276;89;24772;-84
2022/06/13 01:22:53;;;;;;;;;;;;;;;17.09;100.00;98122.14;1635792;86;22008;-85
2022/06/13 01:25:30;;;;;;;;;;;;;;;17.03;100.00;98126.73;1619909;87;26103;-86
2022/06/13 01:28:10;;;;;;;;;;;;;;;17.01;100.00;98116.82;1639248;85;24446;-85
2022/06/13 01:30:55;;;;;;;;;;;;;;;17.02;100.00;98114.00;1628692;87;20276;-84
2022/06/13 01:33:28;;;;;;;;;;;;;;;17.10;100.00;98111.91;1625061;87;24768;-84
2022/06/13 01:35:56;;;;;;;;;;;;;;;17.15;100.00;98115.75;1625471;87;22053;-88
2022/06/13 01:38:26;;;;;;;;;;;;;;;17.21;100.00;98115.62;1635428;86;26111;-88
2022/06/13 01:41:00;;;;;;;;;;;;;;;17.17;100.00;98122.70;1633095;86;24770;-88
2022/06/13 01:43:27;;;;;;;;;;;;;;;17.15;100.00;98119.72;1618377;87;20324;-89
2022/06/13 01:46:06;;;;;;;;;;;;;;;17.20;100.00;98107.83;1624047;86;24887;-89
2022/06/13 01:48:37;;;;;;;;;;;;;;;17.17;100.00;98102.38;1640661;86;22078;-85
2022/06/13 01:51:20;;;;;;;;;;;;;;;17.21;100.00;98098.42;1631340;86;26831;-84
2022/06/13 01:53:51;;;;;;;;;;;;;;;17.23;100.00;98098.28;1643588;86;24581;-84
2022/06/13 01:56:22;;;;;;;;;;;;;;;17.29;100.00;98097.13;1617741;88;20258;-87
2022/06/13 01:58:49;;;;;;;;;;;;;;;17.28;100.00;98093.34;1641534;85;24910;-83
2022/06/13 02:01:17;;;;;;;;;;;;;;;17.23;100.00;98092.98;1639007;86;22053;-83
2022/06/13 02:03:45;;;;;;;;;;;;;;;17.16;100.00;98088.81;1631406;86;26142;-88
2022/06/13 02:06:16;;;;;;;;;;;;;;;17.08;100.00;98086.94;1643126;85;24716;-83
2022/06/13 02:08:44;;;;;;;;;;;;;;;17.04;100.00;98084.77;1632617;86;20300;-84
2022/06/13 02:11:11;;;;;;;;;;;;;;;17.04;100.00;98083.45;1618792;87;24731;-84
2022/06/13 02:13:39;;;;;;;;;;;;;;;17.07;100.00;98088.44;1616191;87;22078;-84
2022/06/13 02:16:08;;;;;;;;;;;;;;;17.08;100.00;98082.97;1617632;87;25870;-88
2022/06/13 02:18:36;;;;;;;;;;;;;;;17.07;100.00;98085.27;1596960;87;24543;-87
2022/06/13 02:21:03;;;;;;;;;;;;;;;17.09;100.00;98079.84;1641532;86;20233;-84
2022/06/13 02:23:31;;;;;;;;;;;;;;;17.04;100.00;98076.34;1612052;87;24797;-84
2022/06/13 02:26:01;;;;;;;;;;;;;;;17.10;100.00;98071.76;1665020;84;22055;-85
2022/06/13 02:28:41;;;;;;;;;;;;;;;17.16;100.00;98072.95;1663433;85;25993;-89
2022/06/13 02:31:11;;;;;;;;;;;;;;;17.20;100.00;98070.80;1668304;85;24482;-86
2022/06/13 02:33:39;;;;;;;;;;;;;;;17.23;100.00;98077.95;1663197;83;20333;-85
2022/06/13 02:36:13;;;;;;;;;;;;;;;17.20;100.00;98072.95;1670462;85;25453;-88
2022/06/13 02:38:41;;;;;;;;;;;;;;;17.24;100.00;98073.50;1668286;85;22161;-85
2022/06/13 02:41:12;;;;;;;;;;;;;;;17.32;100.00;98081.45;1666674;85;26001;-85
2022/06/13 02:43:43;;;;;;;;;;;;;;;17.35;100.00;98075.34;1669548;85;25092;-85
2022/06/13 02:46:11;;;;;;;;;;;;;;;17.38;100.00;98066.27;1655918;85;20333;-85
2022/06/13 02:48:39;;;;;;;;;;;;;;;17.40;100.00;98073.05;1664224;84;25108;-85
2022/06/13 02:51:22;;;;;;;;;;;;;;;17.42;100.00;98067.61;1668073;85;21943;-84
2022/06/13 02:54:08;;;;;;;;;;;;;;;17.46;100.00;98063.16;1663872;85;26829;-85
2022/06/13 02:57:23;;;;;;;;;;;;;;;17.48;100.00;98055.07;1612711;87;24454;-85
2022/06/13 02:59:20;;;;;;;;;;;;;;;17.50;100.00;98066.34;1612552;87;20330;-85
2022/06/13 03:01:47;;;;;;;;;;;;;;;17.54;100.00;98071.63;1667121;84;24823;-83
2022/06/13 03:04:15;;;;;;;;;;;;;;;17.58;100.00;98069.00;1677632;85;22734;-83
2022/06/13 03:06:43;;;;;;;;;;;;;;;17.59;100.00;98077.27;1663225;85;25964;-85
2022/06/13 03:09:15;;;;;;;;;;;;;;;17.58;100.00;98074.28;1669811;84;24593;-86
2022/06/13 03:12:00;;;;;;;;;;;;;;;17.58;100.00;98073.80;1670623;85;20168;-88
2022/06/13 03:14:45;;;;;;;;;;;;;;;17.58;100.00;98074.28;1665129;85;24745;-88
2022/06/13 03:17:22;;;;;;;;;;;;;;;17.56;100.00;98073.11;1668114;85;22083;-88
2022/06/13 03:19:50;;;;;;;;;;;;;;;17.56;100.00;98073.11;1671763;84;26161;-85
2022/06/13 03:22:20;;;;;;;;;;;;;;;17.56;100.00;98064.37;1667337;84;24501;-85
2022/06/13 03:24:51;;;;;;;;;;;;;;;17.53;100.00;98071.30;1667483;84;20302;-85
2022/06/13 03:27:19;;;;;;;;;;;;;;;17.39;100.00;98066.62;1673827;83;24908;-85
2022/06/13 03:29:47;;;;;;;;;;;;;;;17.28;100.00;98066.89;1671527;84;22064;-88
2022/06/13 03:32:14;;;;;;;;;;;;;;;17.27;100.00;98067.88;1667751;85;25949;-85
2022/06/13 03:34:44;;;;;;;;;;;;;;;17.27;100.00;98072.67;1669606;84;24401;-85
2022/06/13 03:37:12;;;;;;;;;;;;;;;17.30;100.00;98074.16;1671299;85;20184;-85
2022/06/13 03:39:46;;;;;;;;;;;;;;;17.38;100.00;98068.43;1675325;84;24737;-88
2022/06/13 03:42:14;;;;;;;;;;;;;;;17.44;100.00;98059.03;1670552;84;21970;-85
2022/06/13 03:44:42;;;;;;;;;;;;;;;17.48;100.00;98048.45;1631469;87;26615;-85
2022/06/13 03:47:19;;;;;;;;;;;;;;;17.63;100.00;98048.20;1614336;87;24396;-85
2022/06/13 03:49:46;;;;;;;;;;;;;;;17.87;100.00;98045.63;1598247;87;20290;-85
2022/06/13 03:52:14;;;;;;;;;;;;;;;18.20;100.00;98038.56;1620718;87;25425;-88
2022/06/13 03:54:41;;;;;;;;;;;;;;;18.51;100.00;98040.05;1600202;88;21833;-84
2022/06/13 03:57:15;;;;;;;;;;;;;;;18.78;100.00;98042.37;1602688;88;26114;-84
2022/06/13 03:59:49;;;;;;;;;;;;;;;19.03;100.00;98033.87;1630493;85;24602;-85
2022/06/13 04:02:17;;;;;;;;;;;;;;;19.23;100.00;98036.95;1645988;86;20238;-85
2022/06/13 04:04:48;;;;;;;;;;;;;;;19.51;100.00;98036.88;1620983;87;24742;-85
2022/06/13 04:07:15;;;;;;;;;;;;;;;19.77;100.00;98031.77;1631107;87;22062;-85
2022/06/13 04:09:42;;;;;;;;;;;;;;;19.96;100.00;98034.81;1646039;86;26839;-84
2022/06/13 04:12:13;;;;;;;;;;;;;;;20.14;100.00;98037.66;1632276;86;24587;-84
2022/06/13 04:15:00;;;;;;;;;;;;;;;20.28;100.00;98029.77;1633416;86;20334;-85
2022/06/13 04:17:31;;;;;;;;;;;;;;;20.41;100.00;98037.98;1651612;86;25006;-89
2022/06/13 04:20:02;;;;;;;;;;;;;;;20.53;100.00;98028.25;1636311;86;22053;-89
2022/06/13 04:22:37;;;;;;;;;;;;;;;20.66;100.00;98036.45;1630272;86;26120;-84
2022/06/13 04:25:08;;;;;;;;;;;;;;;20.71;100.00;98028.77;1642980;86;24466;-84
2022/06/13 04:27:41;;;;;;;;;;;;;;;20.80;100.00;98027.66;1611575;88;20302;-84
2022/06/13 04:30:12;;;;;;;;;;;;;;;20.88;100.00;98023.61;1639180;86;25634;-83
2022/06/13 04:32:39;;;;;;;;;;;;;;;20.96;100.00;98020.02;1620263;87;22127;-85
2022/06/13 04:35:06;;;;;;;;;;;;;;;21.01;100.00;98018.96;1677702;85;26017;-85
2022/06/13 04:37:32;;;;;;;;;;;;;;;21.05;100.00;98018.44;1668280;85;24547;-85
2022/06/13 04:40:00;;;;;;;;;;;;;;;21.08;100.00;98020.72;1669510;85;20265;-84
2022/06/13 04:42:28;;;;;;;;;;;;;;;21.13;100.00;98018.84;1667903;85;24823;-85
2022/06/13 04:44:56;;;;;;;;;;;;;;;21.23;100.00;98022.07;1665615;85;22564;-85
2022/06/13 04:47:21;;;;;;;;;;;;;;;21.27;100.00;98015.39;1668018;85;26070;-88
2022/06/13 04:49:55;;;;;;;;;;;;;;;21.32;100.00;98013.50;1666157;84;20313;-84
2022/06/13 04:52:26;;;;;;;;;;;;;;;21.33;100.00;98012.50;1667499;85;20216;-88
2022/06/13 04:55:03;;;;;;;;;;;;;;;21.33;100.00;98021.28;1672197;85;25580;-88
2022/06/13 04:57:29;;;;;;;;;;;;;;;21.34;100.00;98016.78;1667997;85;22147;-89
2022/06/13 04:59:58;;;;;;;;;;;;;;;21.32;100.00;98009.51;1664502;85;25874;-84
2022/06/13 05:02:38;;;;;;;;;;;;;;;21.31;100.00;98013.17;1669541;85;24539;-85
2022/06/13 05:05:06;;;;;;;;;;;;;;;21.32;100.00;98010.84;1670261;84;20323;-84
2022/06/13 05:07:37;;;;;;;;;;;;;;;21.30;100.00;98007.02;1662608;85;25452;-84
2022/06/13 05:10:05;;;;;;;;;;;;;;;21.29;100.00;98007.52;1664154;85;22173;-88
2022/06/13 05:12:44;;;;;;;;;;;;;;;21.29;100.00;98004.03;1660073;85;26025;-88
2022/06/13 05:15:25;;;;;;;;;;;;;;;21.31;100.00;98006.02;1664604;85;24642;-83
2022/06/13 05:17:58;;;;;;;;;;;;;;;21.31;100.00;98005.19;1687816;84;20160;-84
2022/06/13 05:20:41;;;;;;;;;;;;;;;21.35;100.00;98008.62;1665931;85;24656;-86
2022/06/13 05:23:09;;;;;;;;;;;;;;;21.37;100.00;98011.11;1677251;84;21956;-85
2022/06/13 05:25:53;;;;;;;;;;;;;;;21.33;100.00;98005.31;1668482;84;26069;-86
2022/06/13 05:28:21;;;;;;;;;;;;;;;21.33;100.00;98009.83;1678835;84;24499;-89
2022/06/13 05:30:53;;;;;;;;;;;;;;;21.39;100.00;98011.73;1675886;84;20249;-86
2022/06/13 05:33:21;;;;;;;;;;;;;;;21.44;100.00;98013.36;1682194;84;24734;-88
2022/06/13 05:35:52;;;;;;;;;;;;;;;21.50;100.00;98015.25;1667689;84;21988;-88
2022/06/13 05:38:17;;;;;;;;;;;;;;;21.55;100.00;98008.35;1638345;86;26083;-84
2022/06/13 05:40:44;;;;;;;;;;;;;;;21.62;100.00;98005.77;1607338;88;24480;-88
2022/06/13 05:43:10;;;;;;;;;;;;;;;21.68;100.00;98017.84;1623928;87;20197;-83
2022/06/13 05:45:38;;;;;;;;;;;;;;;21.76;100.00;98024.08;1620640;87;24730;-84
2022/06/13 05:48:07;;;;;;;;;;;;;;;21.82;100.00;98039.31;1618912;88;22063;-85
2022/06/13 05:50:33;;;;;;;;;;;;;;;21.88;100.00;98074.00;1616357;87;26058;-85
2022/06/13 05:53:03;;;;;;;;;;;;;;;21.77;100.00;98081.65;1620764;86;20858;-84
2022/06/13 05:55:31;;;;;;;;;;;;;;;21.49;100.00;98076.20;1592466;88;20181;-85
2022/06/13 05:57:57;;;;;;;;;;;;;;;21.39;100.00;98086.27;1615696;87;24893;-89
2022/06/13 06:00:25;;;;;;;;;;;;;;;21.17;100.00;98104.80;1620054;87;21941;-84
2022/06/13 06:02:51;;;;;;;;;;;;;;;20.94;100.00;98113.34;1634237;86;26247;-85
2022/06/13 06:05:20;;;;;;;;;;;;;;;20.85;100.00;98108.58;1638751;86;23927;-84
2022/06/13 06:07:46;;;;;;;;;;;;;;;20.86;100.00;98109.41;1625869;87;20176;-85
2022/06/13 06:10:22;;;;;;;;;;;;;;;20.90;100.00;98105.37;1629429;87;20565;-84
2022/06/13 06:12:48;;;;;;;;;;;;;;;20.94;100.00;98108.02;1626596;88;21970;-84
2022/06/13 06:15:14;;;;;;;;;;;;;;;20.94;100.00;98108.02;1624809;87;26080;-84
2022/06/13 06:17:40;;;;;;;;;;;;;;;20.94;100.00;98112.00;1627484;88;20833;-85
2022/06/13 06:20:06;;;;;;;;;;;;;;;20.94;100.00;98110.67;1626559;88;20350;-85
2022/06/13 06:22:32;;;;;;;;;;;;;;;20.93;100.00;98118.33;1624476;87;25314;-85
2022/06/13 06:24:59;;;;;;;;;;;;;;;20.94;100.00;98122.65;1616646;87;20776;-86
2022/06/13 06:27:27;;;;;;;;;;;;;;;20.96;100.00;98132.59;1600196;87;26164;-86
2022/06/13 06:29:53;;;;;;;;;;;;;;;20.98;100.00;98123.11;1601920;88;24685;-85
2022/06/13 06:32:19;;;;;;;;;;;;;;;21.03;100.00;98118.89;1610251;88;20346;-84
2022/06/13 06:34:45;;;;;;;;;;;;;;;21.09;100.00;98112.85;1592104;88;20238;-88
2022/06/13 06:37:10;;;;;;;;;;;;;;;21.19;100.00;98107.30;1604279;87;20842;-83
2022/06/13 06:39:40;;;;;;;;;;;;;;;21.31;100.00;98095.70;1609205;87;26723;-84
2022/06/13 06:42:06;;;;;;;;;;;;;;;21.34;100.00;98096.14;1603994;88;24687;-83
2022/06/13 06:44:33;;;;;;;;;;;;;;;21.42;100.00;98101.89;1618200;87;20311;-88
2022/06/13 06:46:59;;;;;;;;;;;;;;;21.50;100.00;98100.45;1645079;84;24706;-84
2022/06/13 06:49:25;;;;;;;;;;;;;;;21.52;100.00;98099.28;1651219;85;21810;-85
2022/06/13 06:51:50;;;;;;;;;;;;;;;21.44;100.00;98096.69;1647101;85;20961;-85
2022/06/13 06:59:54;;;;;;;;;;;;;;;21.31;100.00;98105.02;1644207;85;24749;-85
2022/06/13 07:02:23;;;;;;;;;;;;;;;21.28;100.00;98116.34;1653455;84;22733;-85
2022/06/13 07:04:51;;;;;;;;;;;;;;;21.25;100.00;98118.55;1652037;85;26061;-88
2022/06/13 07:07:17;;;;;;;;;;;;;;;21.22;100.00;98113.60;1642395;85;24403;-85
2022/06/13 07:09:43;;;;;;;;;;;;;;;21.15;100.00;98112.16;1645577;85;20294;-84
2022/06/13 07:12:11;;;;;;;;;;;;;;;21.23;100.00;98118.72;1646955;85;20694;-88
2022/06/13 07:14:37;;;;;;;;;;;;;;;21.37;100.00;98121.59;1644735;85;22137;-88
2022/06/13 07:17:07;;;;;;;;;;;;;;;21.54;100.00;98120.41;1644533;85;22961;-85
2022/06/13 07:19:33;;;;;;;;;;;;;;;21.63;100.00;98120.63;1649613;85;24526;-86
2022/06/13 07:21:59;;;;;;;;;;;;;;;21.73;100.00;98126.48;1649571;85;20141;-85
2022/06/13 07:24:26;;;;;;;;;;;;;;;21.80;100.00;98123.91;1631883;85;24727;-85
2022/06/13 07:26:52;;;;;;;;;;;;;;;21.92;100.00;98121.94;1630718;86;21472;-84
2022/06/13 07:29:18;;;;;;;;;;;;;;;22.03;100.00;98125.48;1630242;86;26055;-85
2022/06/13 07:31:56;;;;;;;;;;;;;;;22.03;100.00;98125.98;1632608;86;24471;-89
2022/06/13 07:34:24;;;;;;;;;;;;;;;21.96;100.00;98119.24;1630766;86;20437;-89
2022/06/13 07:36:51;;;;;;;;;;;;;;;21.98;100.00;98111.86;1631520;86;26078;-88
2022/06/13 07:39:17;;;;;;;;;;;;;;;21.97;100.00;98106.24;1630953;86;21920;-89
2022/06/13 07:41:44;;;;;;;;;;;;;;;21.83;100.00;98113.70;1630818;86;27016;-85
2022/06/13 07:44:12;;;;;;;;;;;;;;;21.77;100.00;98107.78;1631431;86;24553;-85
2022/06/13 07:46:38;;;;;;;;;;;;;;;21.75;100.00;98109.00;1629346;87;20341;-85
2022/06/13 07:49:04;;;;;;;;;;;;;;;21.91;100.00;98108.79;1628552;86;24800;-85
2022/06/13 07:51:30;;;;;;;;;;;;;;;22.17;100.00;98108.30;1629349;86;20243;-85
2022/06/13 07:53:56;;;;;;;;;;;;;;;22.41;100.00;98114.11;1630394;88;20918;-85
2022/06/13 07:56:25;;;;;;;;;;;;;;;22.64;100.00;98120.56;1628930;87;24519;-85
2022/06/13 07:58:52;;;;;;;;;;;;;;;22.77;100.00;98110.06;1629284;86;20230;-85
2022/06/13 08:01:20;;;;;;;;;;;;;;;22.88;100.00;98112.21;1628022;88;24963;-85
2022/06/13 08:03:46;;;;;;;;;;;;;;;22.94;100.00;98110.11;1630190;88;22652;-86
2022/06/13 08:06:12;;;;;;;;;;;;;;;22.96;100.00;98101.09;1629357;88;20933;-86
2022/06/13 08:08:40;;;;;;;;;;;;;;;22.94;100.00;98100.77;1628966;87;20410;-86
2022/06/13 08:11:07;;;;;;;;;;;;;;;22.99;100.00;98100.69;1629329;88;20199;-86
2022/06/13 08:13:33;;;;;;;;;;;;;;;22.90;100.00;98095.51;1630217;88;24812;-86
2022/06/13 08:15:59;;;;;;;;;;;;;;;22.84;100.00;98092.27;1629510;88;22737;-86
2022/06/13 08:18:28;;;;;;;;;;;;;;;22.75;100.00;98100.08;1628889;87;20947;-85
2022/06/13 08:20:54;;;;;;;;;;;;;;;22.65;100.00;98093.39;1629796;88;24485;-88
2022/06/13 08:23:21;;;;;;;;;;;;;;;22.50;100.00;98097.47;1633325;84;20242;-86
2022/06/13 08:25:47;;;;;;;;;;;;;;;22.51;100.00;98092.45;1672431;85;24754;-86
2022/06/13 08:28:14;;;;;;;;;;;;;;;22.52;100.00;98104.78;1659890;85;21791;-86
2022/06/13 08:30:40;;;;;;;;;;;;;;;;;;1654791;84;25994;-87
2022/06/13 08:33:06;;;;;;;;;;;;;;;22.65;100.00;98114.73;1666328;85;20302;-86
2022/06/13 08:35:31;;;;;;;;;;;;;;;22.88;100.00;98112.72;1668787;85;20837;-86
2022/06/13 08:37:57;;;;;;;;;;;;;;;23.05;100.00;98111.93;1650163;85;20257;-86
2022/06/13 08:40:25;;;;;;;;;;;;;;;23.15;100.00;98115.91;1665639;85;20255;-86
2022/06/13 08:42:56;;;;;;;;;;;;;;;23.07;100.00;98118.73;1663071;83;26007;-86
2022/06/13 08:45:24;;;;;;;;;;;;;;;22.98;100.00;98119.05;1667523;84;25095;-86
2022/06/13 08:47:59;;;;;;;;;;;;;;;22.89;100.00;98121.88;1649338;85;20362;-86
2022/06/13 08:50:33;;;;;;;;;;;;;;;22.78;100.00;98121.05;1657431;85;24845;-86
2022/06/13 08:53:10;;;;;;;;;;;;;;;22.69;99.37;98121.36;1664432;85;22173;-86
2022/06/13 08:55:37;;;;;;;;;;;;;;;22.59;98.96;98114.98;1666700;83;26040;-86
2022/06/13 08:58:05;;;;;;;;;;;;;;;22.57;98.75;98114.37;1658136;83;24447;-86
2022/06/13 09:00:33;;;;;;;;;;;;;;;22.59;98.51;98112.31;1655593;83;20243;-86
2022/06/13 09:03:01;;;;;;;;;;;;;;;22.58;98.28;98109.36;1667323;85;24835;-86
2022/06/13 09:05:33;;;;;;;;;;;;;;;22.68;98.48;98108.52;1658477;85;22767;-86
2022/06/13 09:08:13;;;;;;;;;;;;;;;22.81;98.56;98103.31;1660387;85;26096;-86
2022/06/13 09:10:46;;;;;;;;;;;;;;;22.93;98.63;98101.78;1653493;85;25059;-86
2022/06/13 09:13:24;;;;;;;;;;;;;;;23.15;98.90;98100.39;1650932;83;20287;-86
2022/06/13 09:15:55;;;;;;;;;;;;;;;23.27;98.63;98099.67;1654826;85;24728;-86
2022/06/13 09:18:32;;;;;;;;;;;;;;;23.29;98.26;98095.48;1657170;85;22217;-86
2022/06/13 09:21:12;;;;;;;;;;;;;;;23.31;98.10;98098.76;1638425;86;26896;-87
2022/06/13 09:23:40;;;;;;;;;;;;;;;23.35;98.01;98087.98;1620580;87;25099;-86
2022/06/13 09:26:11;;;;;;;;;;;;;;;23.36;97.66;98086.47;1616117;87;20223;-87
2022/06/13 09:28:48;;;;;;;;;;;;;;;23.51;97.59;98089.03;1615597;87;25542;-87
2022/06/13 09:31:15;;;;;;;;;;;;;;;23.61;97.18;98086.86;1617213;88;22065;-87
2022/06/13 09:33:43;;;;;;;;;;;;;;;23.50;96.29;98079.40;1617783;87;26214;-87
2022/06/13 09:36:23;;;;;;;;;;;;;;;23.46;95.98;98071.95;1628016;87;24481;-89
2022/06/13 09:38:54;;;;;;;;;;;;;;;23.38;95.69;98074.77;1629733;87;20303;-89
2022/06/13 09:41:38;;;;;;;;;;;;;;;23.38;95.62;98074.27;1631460;86;24766;-86
2022/06/13 09:46:45;;;;;;;;;;;;;;;23.44;95.72;98071.31;1635731;86;26026;-87
2022/06/13 09:49:22;;;;;;;;;;;;;;;23.57;96.08;98073.55;1638253;86;24411;-89
2022/06/13 09:52:02;;;;;;;;;;;;;;;23.82;96.34;98081.08;1629716;86;20227;-89
2022/06/13 09:54:38;;;;;;;;;;;;;;;23.98;96.07;98078.05;1564129;89;25199;-90
2022/06/13 09:57:09;;;;;;;;;;;;;;;24.12;95.90;98081.89;1605666;87;21939;-86
2022/06/13 09:59:37;;;;;;;;;;;;;;;24.24;95.84;98083.50;1603978;88;26248;-86
2022/06/13 10:02:14;;;;;;;;;;;;;;;24.28;95.41;98082.58;1624307;87;24396;-86
2022/06/13 10:04:41;;;;;;;;;;;;;;;24.26;95.04;98082.80;1639323;86;20237;-86
2022/06/13 10:07:12;;;;;;;;;;;;;;;24.21;94.78;98082.59;1608675;87;24844;-86
2022/06/13 10:09:55;;;;;;;;;;;;;;;24.17;94.83;98083.48;1639269;86;22002;-87
2022/06/13 10:12:38;;;;;;;;;;;;;;;24.13;94.66;98084.06;1644189;86;26044;-86
2022/06/13 10:15:11;;;;;;;;;;;;;;;24.09;94.48;98081.48;1621141;87;24557;-86
2022/06/13 10:17:39;;;;;;;;;;;;;;;24.05;94.59;98071.72;1608749;87;20227;-86
2022/06/13 10:20:23;;;;;;;;;;;;;;;24.05;94.95;98077.58;1641267;86;24823;-86
2022/06/13 10:23:00;;;;;;;;;;;;;;;24.03;95.33;98082.28;1641294;86;21974;-86
2022/06/13 10:25:45;;;;;;;;;;;;;;;23.98;95.56;98075.38;1642232;86;26652;-86
2022/06/13 10:28:33;;;;;;;;;;;;;;;23.88;95.42;98075.77;1616380;87;25221;-86
2022/06/13 10:31:04;;;;;;;;;;;;;;;23.85;95.38;98068.64;1621090;87;20339;-86
2022/06/13 10:33:32;;;;;;;;;;;;;;;23.82;95.78;98075.22;1634638;86;24747;-86
2022/06/13 10:35:59;;;;;;;;;;;;;;;23.71;95.62;98057.09;1625421;86;22100;-86
2022/06/13 10:38:33;;;;;;;;;;;;;;;23.72;95.87;98056.07;1664128;84;26279;-86
2022/06/13 10:40:59;;;;;;;;;;;;;;;23.72;96.14;98053.40;1657884;85;24517;-86
2022/06/13 10:43:26;;;;;;;;;;;;;;;23.75;96.29;98048.98;1662594;85;20244;-86
2022/06/13 10:45:53;;;;;;;;;;;;;;;23.82;96.50;98053.02;1672642;85;24828;-86
2022/06/13 10:48:26;;;;;;;;;;;;;;;23.83;96.46;98043.98;1653058;85;22021;-86
2022/06/13 10:50:54;;;;;;;;;;;;;;;23.93;97.09;98045.76;1660279;85;25965;-86
2022/06/13 10:53:22;;;;;;;;;;;;;;;23.98;97.33;98043.30;1651555;85;24279;-89
2022/06/13 10:55:49;;;;;;;;;;;;;;;23.94;96.97;98035.38;1660640;85;20219;-86
2022/06/13 10:58:22;;;;;;;;;;;;;;;23.95;96.64;98044.52;1663884;85;24831;-86
2022/06/13 11:01:02;;;;;;;;;;;;;;;23.93;96.30;98041.75;1656596;85;22109;-86
2022/06/13 11:03:28;;;;;;;;;;;;;;;23.89;96.03;98036.50;1662373;84;26113;-87
2022/06/13 11:06:02;;;;;;;;;;;;;;;23.89;95.66;98029.81;1669999;85;20328;-87
2022/06/13 11:08:30;;;;;;;;;;;;;;;23.95;95.67;98024.47;1665046;83;20529;-86
2022/06/13 11:11:02;;;;;;;;;;;;;;;24.00;95.75;98021.21;1649752;85;24908;-86
2022/06/13 11:13:29;;;;;;;;;;;;;;;24.06;95.92;98032.41;1660752;85;22130;-86
2022/06/13 11:24:32;;;;;;;;;;;;;;;24.02;94.36;98014.63;1647828;85;24812;-86
2022/06/13 11:29:47;;;;;;;;;;;;;;;24.13;94.63;98007.34;1628691;87;26758;-86
2022/06/13 11:32:25;;;;;;;;;;;;;;;24.21;94.72;98009.05;1630893;86;25309;-86
2022/06/13 11:34:50;;;;;;;;;;;;;;;24.21;94.66;98009.05;1628972;87;20236;-87
2022/06/13 11:37:24;;;;;;;;;;;;;;;24.12;93.95;98011.03;1629982;86;24845;-87
2022/06/13 11:39:51;;;;;;;;;;;;;;;24.05;93.41;98008.89;1626138;88;21956;-89
2022/06/13 11:42:19;;;;;;;;;;;;;;;23.99;93.18;98002.19;1629892;86;26041;-89
2022/06/13 11:44:47;;;;;;;;;;;;;;;23.96;93.25;97995.89;1629235;86;24455;-89
2022/06/13 11:47:14;;;;;;;;;;;;;;;23.92;92.93;97995.48;1629551;88;20395;-86
2022/06/13 11:49:44;;;;;;;;;;;;;;;23.82;92.53;97993.71;1629764;87;24817;-87
2022/06/13 11:52:13;;;;;;;;;;;;;;;23.67;91.90;97986.38;1628860;86;21995;-90
2022/06/13 11:54:41;;;;;;;;;;;;;;;23.59;91.85;97986.03;1631636;86;26244;-90
2022/06/13 11:57:11;;;;;;;;;;;;;;;23.54;91.87;97980.47;1628623;86;24378;-86
2022/06/13 11:59:47;;;;;;;;;;;;;;;23.48;91.98;97970.58;1628851;86;20197;-89
2022/06/13 12:02:19;;;;;;;;;;;;;;;23.43;91.96;97969.50;1630722;86;24435;-90
2022/06/13 12:04:51;;;;;;;;;;;;;;;23.40;92.22;97972.07;1629707;86;22054;-89
2022/06/13 12:07:17;;;;;;;;;;;;;;;23.39;92.62;97967.75;1628460;86;26716;-90
2022/06/13 12:09:44;;;;;;;;;;;;;;;23.36;92.69;97973.47;1628356;86;24525;-86
2022/06/13 12:12:11;;;;;;;;;;;;;;;23.32;92.78;97964.22;1628298;86;20344;-86
2022/06/13 12:14:38;;;;;;;;;;;;;;;23.29;92.81;97961.96;1631046;88;24879;-86
2022/06/13 12:17:10;;;;;;;;;;;;;;;23.21;92.68;97961.61;1630760;86;22163;-86
2022/06/13 12:19:38;;;;;;;;;;;;;;;23.17;92.69;97964.88;1629777;88;25980;-86
2022/06/13 12:22:07;;;;;;;;;;;;;;;23.15;92.88;97966.40;1629788;86;24495;-86
2022/06/13 12:24:47;;;;;;;;;;;;;;;23.11;93.13;97966.48;1640122;84;20205;-90
2022/06/13 12:27:17;;;;;;;;;;;;;;;23.01;93.07;97969.20;1664391;84;24813;-90
2022/06/13 12:29:48;;;;;;;;;;;;;;;22.92;93.09;97965.86;1667993;85;22220;-86
2022/06/13 12:32:28;;;;;;;;;;;;;;;22.87;93.15;97969.62;1668749;84;25958;-86
2022/06/13 12:35:03;;;;;;;;;;;;;;;22.89;93.62;97966.27;1629292;86;20557;-86
2022/06/13 12:37:34;;;;;;;;;;;;;;;22.88;93.85;97969.44;1629649;86;20275;-86
2022/06/13 12:40:18;;;;;;;;;;;;;;;22.80;93.88;97983.45;1627646;86;25475;-86
2022/06/13 12:43:02;;;;;;;;;;;;;;;22.64;93.87;98005.86;1668365;84;21975;-86
2022/06/13 12:45:43;;;;;;;;;;;;;;;22.23;93.69;98000.91;1666071;84;26072;-86
2022/06/13 12:48:11;;;;;;;;;;;;;;;21.78;93.42;98002.05;1664334;85;25175;-86
2022/06/13 12:50:39;;;;;;;;;;;;;;;21.42;93.22;98002.05;1668380;84;20249;-86
2022/06/13 12:53:16;;;;;;;;;;;;;;;21.22;93.54;98011.92;1667189;84;24759;-87
2022/06/13 12:55:46;;;;;;;;;;;;;;;21.04;93.74;98021.27;1669024;84;22056;-86
2022/06/13 12:58:17;;;;;;;;;;;;;;;20.80;93.92;98031.16;1662018;85;26037;-86
2022/06/13 13:00:48;;;;;;;;;;;;;;;20.63;94.34;98038.95;1671259;84;24444;-86
2022/06/13 13:03:19;;;;;;;;;;;;;;;20.56;95.01;98049.18;1667713;84;20526;-86
2022/06/13 13:05:46;;;;;;;;;;;;;;;20.58;95.79;98050.64;1669239;84;25261;-86
2022/06/13 13:08:26;;;;;;;;;;;;;;;20.51;96.39;98044.38;1662470;84;21949;-86
2022/06/13 13:10:54;;;;;;;;;;;;;;;20.48;97.03;98055.38;1665195;84;26064;-89
2022/06/13 13:13:31;;;;;;;;;;;;;;;20.42;97.66;98058.25;1665538;84;25225;-89
2022/06/13 13:15:59;;;;;;;;;;;;;;;20.41;98.37;98059.75;1664118;84;20250;-90
2022/06/13 13:18:39;;;;;;;;;;;;;;;20.41;99.07;98069.05;1664575;85;24730;-89